Time;durP1;ratioP1;P1;durP2;ratioP2;P2;SDS_P1;SDS_P2;PMS_P1;PMS_P2;Temp;Humidity;BMP_temperature;BMP_pressure;BME280_temperature;BME280_humidity;BME280_pressure;Samples;Min_cycle;Max_cycle;Signal;HPM_P1;HPM_P2
2022/05/27 00:02:24;;;;;;;;;;;13.00;99.90;;;;;;5088152;28;20422;-72
2022/05/27 00:04:49;;;;;;;;;;;12.90;99.90;;;;;;5123269;27;19920;-72
2022/05/27 00:07:15;;;;;;;;;;;13.00;99.90;;;;;;5087471;28;19923;-69
2022/05/27 00:09:40;;;;;;;;;;;12.90;99.90;;;;;;5066396;28;19946;-71
2022/05/27 00:12:05;;;;;;;;;;;13.00;99.90;;;;;;5085074;28;20711;-70
2022/05/27 00:14:31;;;;;;;;;;;12.90;99.90;;;;;;5081314;28;19920;-71
2022/05/27 00:16:56;;;;;;;;;;;12.90;99.90;;;;;;5085660;28;19935;-74
2022/05/27 00:19:22;;;;;;;;;;;12.90;99.90;;;;;;5097751;28;20329;-73
2022/05/27 00:21:47;;;;;;;;;;;12.90;99.90;;;;;;5086935;28;20345;-71
2022/05/27 00:24:13;;;;;;;;;;;12.90;99.90;;;;;;5086881;28;19967;-75
2022/05/27 00:26:39;;;;;;;;;;;12.90;99.90;;;;;;5085673;28;19924;-72
2022/05/27 00:29:04;;;;;;;;;;;12.90;99.90;;;;;;5094753;28;20344;-70
2022/05/27 00:31:30;;;;;;;;;;;13.00;99.90;;;;;;5075366;28;20460;-73
2022/05/27 00:33:55;;;;;;;;;;;13.00;99.90;;;;;;5090004;28;20014;-72
2022/05/27 00:36:20;;;;;;;;;;;13.20;99.90;;;;;;5107551;27;19950;-73
2022/05/27 00:38:46;;;;;;;;;;;13.10;99.90;;;;;;5082541;28;19969;-72
2022/05/27 00:41:12;;;;;;;;;;;13.10;99.90;;;;;;5090336;28;19928;-70
2022/05/27 00:43:41;;;;;;;;;;;13.20;99.90;;;;;;5118308;27;20157;-71
2022/05/27 00:46:13;;;;;;;;;;;13.20;99.90;;;;;;5093402;28;20294;-70
2022/05/27 00:48:39;;;;;;;;;;;13.20;99.90;;;;;;5089428;28;20023;-71
2022/05/27 00:51:06;;;;;;;;;;;13.30;99.90;;;;;;5102185;28;20338;-70
2022/05/27 00:53:35;;;;;;;;;;;13.10;99.90;;;;;;5079125;28;19924;-71
2022/05/27 00:56:01;;;;;;;;;;;13.20;99.90;;;;;;5080749;28;19924;-68
2022/05/27 00:58:29;;;;;;;;;;;13.00;99.90;;;;;;5093393;28;19920;-70
2022/05/27 01:00:55;;;;;;;;;;;13.20;99.90;;;;;;5084039;28;19975;-70
2022/05/27 01:03:21;;;;;;;;;;;13.10;99.90;;;;;;5089578;28;19967;-72
2022/05/27 01:05:47;;;;;;;;;;;13.20;99.90;;;;;;5090236;28;19977;-69
2022/05/27 01:08:16;;;;;;;;;;;13.10;99.90;;;;;;5097287;28;20331;-71
2022/05/27 01:10:47;;;;;;;;;;;13.30;99.90;;;;;;5098481;28;19920;-72
2022/05/27 01:13:20;;;;;;;;;;;13.20;99.90;;;;;;5097751;28;19972;-69
2022/05/27 01:15:49;;;;;;;;;;;13.30;99.90;;;;;;5086711;28;20271;-70
2022/05/27 01:20:18;;;;;;;;;;;13.10;99.90;;;;;;5096252;28;19950;-67
2022/05/27 01:21:16;;;;;;;;;;;13.30;99.90;;;;;;5089020;28;19935;-69
2022/05/27 01:23:42;;;;;;;;;;;13.30;99.90;;;;;;5089697;28;19977;-68
2022/05/27 01:26:10;;;;;;;;;;;13.20;99.90;;;;;;5087642;28;20332;-72
2022/05/27 01:28:42;;;;;;;;;;;13.20;99.90;;;;;;5079550;28;19982;-70
2022/05/27 01:31:28;;;;;;;;;;;13.30;99.90;;;;;;5094651;28;20378;-72
2022/05/27 01:33:59;;;;;;;;;;;13.30;99.90;;;;;;5082861;28;19923;-71
2022/05/27 01:36:44;;;;;;;;;;;13.30;99.90;;;;;;5105888;27;19973;-71
2022/05/27 01:39:14;;;;;;;;;;;13.40;99.90;;;;;;5104515;28;19927;-70
2022/05/27 01:41:43;;;;;;;;;;;13.50;99.90;;;;;;5080151;28;19919;-71
2022/05/27 01:44:14;;;;;;;;;;;13.40;99.90;;;;;;5083736;28;20405;-71
2022/05/27 01:46:44;;;;;;;;;;;13.40;99.90;;;;;;5084609;28;19928;-71
2022/05/27 01:49:16;;;;;;;;;;;13.30;99.90;;;;;;5066281;28;19921;-71
2022/05/27 01:51:44;;;;;;;;;;;13.10;99.90;;;;;;5108074;27;19951;-70
2022/05/27 01:54:22;;;;;;;;;;;13.10;99.90;;;;;;5077404;28;19935;-69
2022/05/27 01:56:55;;;;;;;;;;;13.10;99.90;;;;;;5078067;28;19935;-68
2022/05/27 01:59:27;;;;;;;;;;;13.10;99.90;;;;;;5099349;28;19920;-70
2022/05/27 02:01:57;;;;;;;;;;;13.00;99.90;;;;;;5092374;28;19924;-69
2022/05/27 02:04:28;;;;;;;;;;;13.00;99.90;;;;;;5108335;28;19924;-72
2022/05/27 02:06:56;;;;;;;;;;;12.90;99.90;;;;;;5085283;28;19991;-72
2022/05/27 02:09:28;;;;;;;;;;;12.90;99.90;;;;;;5084933;28;19968;-71
2022/05/27 02:11:58;;;;;;;;;;;12.80;99.90;;;;;;5064915;28;21403;-72
2022/05/27 02:14:34;;;;;;;;;;;12.80;99.90;;;;;;5095217;28;19920;-71
2022/05/27 02:17:05;;;;;;;;;;;12.70;99.90;;;;;;5066245;28;20347;-72
2022/05/27 02:19:34;;;;;;;;;;;12.80;99.90;;;;;;5108089;28;19925;-73
2022/05/27 02:22:03;;;;;;;;;;;12.60;99.90;;;;;;5084156;28;19920;-72
2022/05/27 02:24:36;;;;;;;;;;;12.60;99.90;;;;;;5094381;28;20267;-71
2022/05/27 02:27:16;;;;;;;;;;;12.70;99.90;;;;;;5116868;28;19929;-73
2022/05/27 02:29:44;;;;;;;;;;;12.60;99.90;;;;;;5109323;28;20023;-73
2022/05/27 02:32:12;;;;;;;;;;;12.60;99.90;;;;;;5086164;28;20367;-74
2022/05/27 02:37:31;;;;;;;;;;;12.50;99.90;;;;;;5085797;28;19930;-73
2022/05/27 02:39:57;;;;;;;;;;;12.50;99.90;;;;;;5105182;28;19919;-73
2022/05/27 02:42:42;;;;;;;;;;;12.50;99.90;;;;;;5107329;28;19978;-73
2022/05/27 02:45:26;;;;;;;;;;;12.40;99.90;;;;;;5066558;28;20326;-71
2022/05/27 02:48:00;;;;;;;;;;;12.30;99.90;;;;;;5083604;28;19920;-73
2022/05/27 02:50:35;;;;;;;;;;;12.30;99.90;;;;;;5082207;28;20010;-73
2022/05/27 02:53:19;;;;;;;;;;;12.20;99.90;;;;;;5110992;28;20378;-73
2022/05/27 02:55:45;;;;;;;;;;;12.20;99.90;;;;;;5081188;28;20333;-73
2022/05/27 02:58:10;;;;;;;;;;;12.20;99.90;;;;;;5084148;28;19949;-70
2022/05/27 03:00:36;;;;;;;;;;;12.20;99.90;;;;;;5080326;28;20031;-73
2022/05/27 03:03:03;;;;;;;;;;;12.10;99.90;;;;;;5086871;28;19926;-73
2022/05/27 03:05:44;;;;;;;;;;;12.10;99.90;;;;;;5095951;28;19932;-74
2022/05/27 03:08:16;;;;;;;;;;;12.10;99.90;;;;;;5089139;28;20046;-72
2022/05/27 03:10:54;;;;;;;;;;;12.10;99.90;;;;;;5092716;28;19966;-73
2022/05/27 03:13:33;;;;;;;;;;;12.20;99.90;;;;;;5089941;28;19970;-70
2022/05/27 03:16:16;;;;;;;;;;;12.20;99.90;;;;;;5084851;28;20023;-72
2022/05/27 03:18:56;;;;;;;;;;;12.10;99.90;;;;;;5097708;28;19985;-75
2022/05/27 03:21:27;;;;;;;;;;;12.10;99.90;;;;;;5115862;27;19990;-74
2022/05/27 03:23:58;;;;;;;;;;;12.20;99.90;;;;;;5103708;28;20400;-74
2022/05/27 03:26:30;;;;;;;;;;;12.20;99.90;;;;;;5095426;28;19954;-70
2022/05/27 03:29:08;;;;;;;;;;;12.20;99.90;;;;;;5116843;27;20302;-71
2022/05/27 03:31:36;;;;;;;;;;;12.30;99.90;;;;;;5089965;28;19931;-71
2022/05/27 03:34:09;;;;;;;;;;;12.10;99.90;;;;;;5083786;28;19928;-72
2022/05/27 03:36:39;;;;;;;;;;;12.20;99.90;;;;;;5095829;28;19931;-73
2022/05/27 03:39:18;;;;;;;;;;;12.20;99.90;;;;;;5088337;28;19938;-70
2022/05/27 03:41:49;;;;;;;;;;;12.30;99.90;;;;;;5097241;28;20373;-73
2022/05/27 03:44:16;;;;;;;;;;;12.30;99.90;;;;;;5094391;28;20283;-73
2022/05/27 03:46:41;;;;;;;;;;;12.30;99.90;;;;;;5095526;28;20391;-69
2022/05/27 03:49:07;;;;;;;;;;;12.20;99.90;;;;;;5083679;28;19963;-74
2022/05/27 03:51:37;;;;;;;;;;;12.20;99.90;;;;;;5087356;28;19964;-73
2022/05/27 03:54:06;;;;;;;;;;;12.20;99.90;;;;;;5088884;28;20594;-73
2022/05/27 03:56:33;;;;;;;;;;;12.20;99.90;;;;;;5090303;28;19927;-72
2022/05/27 03:58:59;;;;;;;;;;;12.10;99.90;;;;;;5087097;28;19932;-72
2022/05/27 04:01:25;;;;;;;;;;;12.20;99.90;;;;;;5102971;28;20369;-73
2022/05/27 04:03:51;;;;;;;;;;;12.10;99.90;;;;;;5095682;28;19930;-71
2022/05/27 04:06:17;;;;;;;;;;;12.20;99.90;;;;;;5095360;28;19932;-73
2022/05/27 04:08:42;;;;;;;;;;;12.10;99.90;;;;;;5083102;28;19920;-73
2022/05/27 04:11:07;;;;;;;;;;;12.20;99.90;;;;;;5092275;28;19931;-73
2022/05/27 04:13:33;;;;;;;;;;;12.10;99.90;;;;;;5105385;28;19919;-73
2022/05/27 04:16:00;;;;;;;;;;;12.20;99.90;;;;;;5089048;28;19924;-70
2022/05/27 04:18:26;;;;;;;;;;;12.20;99.90;;;;;;5075259;28;19928;-73
2022/05/27 04:20:51;;;;;;;;;;;12.20;99.90;;;;;;5089261;28;19920;-73
2022/05/27 04:23:17;;;;;;;;;;;12.20;99.90;;;;;;5095375;28;19924;-73
2022/05/27 04:25:45;;;;;;;;;;;12.10;99.90;;;;;;5093518;28;20015;-73
2022/05/27 04:28:10;;;;;;;;;;;12.20;99.90;;;;;;5097128;28;19934;-73
2022/05/27 04:30:36;;;;;;;;;;;12.30;99.90;;;;;;5097293;28;19923;-74
2022/05/27 04:33:01;;;;;;;;;;;12.30;99.90;;;;;;5090174;28;19920;-72
2022/05/27 04:35:26;;;;;;;;;;;12.30;99.90;;;;;;5095755;28;19920;-71
2022/05/27 04:37:52;;;;;;;;;;;12.20;99.90;;;;;;5084688;28;19975;-75
2022/05/27 04:40:17;;;;;;;;;;;12.20;99.90;;;;;;5091620;28;19958;-72
2022/05/27 04:42:44;;;;;;;;;;;12.20;99.90;;;;;;5072995;28;19959;-73
2022/05/27 04:45:10;;;;;;;;;;;12.20;99.90;;;;;;5091730;28;19934;-74
2022/05/27 04:47:37;;;;;;;;;;;12.30;99.90;;;;;;5093658;28;19927;-72
2022/05/27 04:50:02;;;;;;;;;;;12.30;99.90;;;;;;5092285;28;20298;-73
2022/05/27 04:52:29;;;;;;;;;;;12.30;99.90;;;;;;5090925;28;20002;-72
2022/05/27 04:54:57;;;;;;;;;;;12.30;99.90;;;;;;5089627;28;19973;-73
2022/05/27 04:57:24;;;;;;;;;;;12.20;99.90;;;;;;5084189;28;20371;-70
2022/05/27 04:59:50;;;;;;;;;;;12.10;99.90;;;;;;5094782;28;19920;-72
2022/05/27 05:02:21;;;;;;;;;;;12.20;99.90;;;;;;5097833;28;20290;-72
2022/05/27 05:04:46;;;;;;;;;;;12.20;99.90;;;;;;5090353;28;19920;-72
2022/05/27 05:07:12;;;;;;;;;;;12.30;99.90;;;;;;5082529;28;19977;-71
2022/05/27 05:09:38;;;;;;;;;;;12.30;99.90;;;;;;5073233;28;19974;-72
2022/05/27 05:12:04;;;;;;;;;;;12.30;99.90;;;;;;5078596;28;19920;-71
2022/05/27 05:14:34;;;;;;;;;;;12.40;99.90;;;;;;5071688;28;19921;-71
2022/05/27 05:16:59;;;;;;;;;;;12.40;99.90;;;;;;5112419;27;19921;-72
2022/05/27 05:19:25;;;;;;;;;;;12.40;99.90;;;;;;5083533;28;19920;-71
2022/05/27 05:21:50;;;;;;;;;;;12.50;99.90;;;;;;5094126;28;19927;-70
2022/05/27 05:24:16;;;;;;;;;;;12.60;99.90;;;;;;5072004;28;19964;-70
2022/05/27 05:26:41;;;;;;;;;;;12.60;99.90;;;;;;5090790;28;19924;-70
2022/05/27 05:29:07;;;;;;;;;;;12.70;99.90;;;;;;5089820;28;19926;-71
2022/05/27 05:31:33;;;;;;;;;;;12.80;99.90;;;;;;5089013;28;19930;-70
2022/05/27 05:33:59;;;;;;;;;;;12.90;99.90;;;;;;5085567;28;20020;-69
2022/05/27 05:36:29;;;;;;;;;;;13.10;99.90;;;;;;5083463;28;19920;-71
2022/05/27 05:38:54;;;;;;;;;;;13.20;99.90;;;;;;5083082;28;20386;-71
2022/05/27 05:41:27;;;;;;;;;;;13.20;99.90;;;;;;5085138;28;19955;-70
2022/05/27 05:43:53;;;;;;;;;;;13.20;99.90;;;;;;5085543;28;19920;-69
2022/05/27 05:46:18;;;;;;;;;;;13.20;99.90;;;;;;5052497;28;20019;-71
2022/05/27 05:48:44;;;;;;;;;;;13.30;99.90;;;;;;5080827;28;19934;-71
2022/05/27 05:51:09;;;;;;;;;;;13.30;99.90;;;;;;5110452;27;20026;-71
2022/05/27 05:53:34;;;;;;;;;;;13.40;99.90;;;;;;5111446;27;19920;-73
2022/05/27 05:56:00;;;;;;;;;;;13.40;99.90;;;;;;5083890;28;19991;-68
2022/05/27 05:58:25;;;;;;;;;;;13.40;99.90;;;;;;5109076;27;19928;-72
2022/05/27 06:00:51;;;;;;;;;;;13.50;99.90;;;;;;5113172;27;19959;-70
2022/05/27 06:03:16;;;;;;;;;;;13.50;99.90;;;;;;5085093;28;19924;-69
2022/05/27 06:05:42;;;;;;;;;;;13.50;99.90;;;;;;5076410;28;19931;-66
2022/05/27 06:08:08;;;;;;;;;;;13.60;99.90;;;;;;5104143;28;20342;-71
2022/05/27 06:10:34;;;;;;;;;;;13.60;99.90;;;;;;5084449;28;19920;-72
2022/05/27 06:12:59;;;;;;;;;;;13.70;99.90;;;;;;5088564;28;20006;-74
2022/05/27 06:15:25;;;;;;;;;;;13.80;99.90;;;;;;5088058;28;20314;-71
2022/05/27 06:17:50;;;;;;;;;;;13.80;99.90;;;;;;5071207;28;19920;-66
2022/05/27 06:20:16;;;;;;;;;;;13.90;99.90;;;;;;5078709;28;19920;-71
2022/05/27 06:22:41;;;;;;;;;;;13.90;99.90;;;;;;5084620;28;19921;-70
2022/05/27 06:25:07;;;;;;;;;;;14.00;99.90;;;;;;5091410;28;19927;-70
2022/05/27 06:27:33;;;;;;;;;;;14.00;99.90;;;;;;5091177;28;20557;-68
2022/05/27 06:35:24;;;;;;;;;;;14.10;99.90;;;;;;5101453;28;19920;-71
2022/05/27 06:37:49;;;;;;;;;;;14.10;99.90;;;;;;5094432;28;19920;-66
2022/05/27 06:40:16;;;;;;;;;;;14.00;99.90;;;;;;5098342;28;19919;-67
2022/05/27 06:42:41;;;;;;;;;;;13.80;99.90;;;;;;5082336;28;19924;-71
2022/05/27 06:45:08;;;;;;;;;;;13.70;99.90;;;;;;5100312;28;20355;-70
2022/05/27 06:47:34;;;;;;;;;;;13.70;99.90;;;;;;5104986;28;19966;-70
2022/05/27 06:50:00;;;;;;;;;;;13.70;99.90;;;;;;5102426;28;19919;-72
2022/05/27 06:52:25;;;;;;;;;;;13.80;99.90;;;;;;5105584;28;20014;-75
2022/05/27 06:54:51;;;;;;;;;;;13.90;99.90;;;;;;5106226;28;19920;-70
2022/05/27 06:57:17;;;;;;;;;;;14.00;99.90;;;;;;5100182;28;20404;-71
2022/05/27 06:59:42;;;;;;;;;;;13.90;99.90;;;;;;5112967;27;20003;-68
2022/05/27 07:02:09;;;;;;;;;;;13.90;99.90;;;;;;5103428;28;19939;-68
2022/05/27 07:04:34;;;;;;;;;;;13.90;99.90;;;;;;5120883;27;19920;-65
2022/05/27 07:07:01;;;;;;;;;;;13.90;99.90;;;;;;5095235;28;19970;-67
2022/05/27 07:09:26;;;;;;;;;;;13.90;99.90;;;;;;5084378;28;19920;-67
2022/05/27 07:11:53;;;;;;;;;;;14.00;99.90;;;;;;5092344;28;19920;-70
2022/05/27 07:14:19;;;;;;;;;;;14.10;99.90;;;;;;5096285;28;19928;-67
2022/05/27 07:16:46;;;;;;;;;;;14.20;99.90;;;;;;5090653;28;19927;-67
2022/05/27 07:19:12;;;;;;;;;;;14.20;99.90;;;;;;5080631;28;19931;-70
2022/05/27 07:21:39;;;;;;;;;;;14.20;99.90;;;;;;5084991;28;19924;-71
2022/05/27 07:24:05;;;;;;;;;;;14.10;99.90;;;;;;5088093;28;19977;-67
2022/05/27 07:26:31;;;;;;;;;;;14.00;99.90;;;;;;5093879;28;20484;-66
2022/05/27 07:28:56;;;;;;;;;;;13.90;99.90;;;;;;5085213;28;20011;-69
2022/05/27 07:31:22;;;;;;;;;;;13.70;99.90;;;;;;5079979;28;19924;-70
2022/05/27 07:33:47;;;;;;;;;;;13.60;99.90;;;;;;5097221;28;19924;-70
2022/05/27 07:36:13;;;;;;;;;;;13.70;99.90;;;;;;5098751;28;19939;-71
2022/05/27 07:38:38;;;;;;;;;;;13.90;99.90;;;;;;5093587;28;20270;-75
2022/05/27 07:41:05;;;;;;;;;;;14.10;99.90;;;;;;5097108;28;19930;-71
2022/05/27 07:43:30;;;;;;;;;;;14.30;99.90;;;;;;5108638;28;20317;-75
2022/05/27 07:45:56;;;;;;;;;;;14.40;99.90;;;;;;5100634;28;19938;-69
2022/05/27 07:48:22;;;;;;;;;;;14.40;99.90;;;;;;5089007;28;19920;-73
2022/05/27 07:50:47;;;;;;;;;;;14.10;99.90;;;;;;5077035;28;19920;-68
2022/05/27 07:53:13;;;;;;;;;;;14.00;99.90;;;;;;5096293;28;20278;-71
2022/05/27 07:55:38;;;;;;;;;;;14.10;99.90;;;;;;5091014;28;19920;-76
2022/05/27 07:58:04;;;;;;;;;;;14.20;99.90;;;;;;5088781;28;19928;-71
2022/05/27 08:00:31;;;;;;;;;;;14.20;99.90;;;;;;5080295;28;19928;-70
2022/05/27 08:02:57;;;;;;;;;;;14.30;99.90;;;;;;5084585;28;19970;-71
2022/05/27 08:05:26;;;;;;;;;;;14.40;99.90;;;;;;5093833;28;20383;-69
2022/05/27 08:07:53;;;;;;;;;;;14.50;99.90;;;;;;5084486;28;20307;-73
2022/05/27 08:10:20;;;;;;;;;;;14.50;99.90;;;;;;5068621;28;20012;-70
2022/05/27 08:12:46;;;;;;;;;;;14.50;99.90;;;;;;5070029;28;20379;-71
2022/05/27 08:15:12;;;;;;;;;;;14.30;99.90;;;;;;5052503;28;19937;-70
2022/05/27 08:17:38;;;;;;;;;;;14.30;99.90;;;;;;5086154;28;20015;-69
2022/05/27 08:20:05;;;;;;;;;;;14.30;99.90;;;;;;5094631;28;19933;-70
2022/05/27 08:22:31;;;;;;;;;;;14.20;99.90;;;;;;5089143;28;19924;-69
2022/05/27 08:24:56;;;;;;;;;;;14.30;99.90;;;;;;5083642;28;20010;-70
2022/05/27 08:27:22;;;;;;;;;;;14.20;99.90;;;;;;5086415;28;20065;-70
2022/05/27 08:29:48;;;;;;;;;;;14.10;99.90;;;;;;5115393;27;19923;-75
2022/05/27 08:32:13;;;;;;;;;;;14.10;99.90;;;;;;5096083;28;19991;-72
2022/05/27 08:40:26;;;;;;;;;;;14.00;99.90;;;;;;5078902;28;19966;-74
2022/05/27 08:43:10;;;;;;;;;;;14.10;99.90;;;;;;5112397;27;20010;-74
2022/05/27 08:45:39;;;;;;;;;;;14.20;99.90;;;;;;5083003;28;19939;-69
2022/05/27 08:48:06;;;;;;;;;;;14.50;99.90;;;;;;5095838;28;19967;-70
2022/05/27 08:51:07;;;;;;;;;;;14.40;99.90;;;;;;5087282;28;19920;-71
2022/05/27 08:53:36;;;;;;;;;;;14.40;99.90;;;;;;4997733;28;19925;-74
2022/05/27 09:01:44;;;;;;;;;;;14.70;99.90;;;;;;5087216;28;19954;-71
2022/05/27 09:04:13;;;;;;;;;;;14.70;99.90;;;;;;5069020;28;19921;-75
2022/05/27 09:07:04;;;;;;;;;;;14.60;99.90;;;;;;5096307;28;20026;-73
2022/05/27 09:09:30;;;;;;;;;;;14.40;99.90;;;;;;5069485;28;19921;-76
2022/05/27 09:12:08;;;;;;;;;;;14.50;99.90;;;;;;5111418;27;19928;-75
2022/05/27 09:14:35;;;;;;;;;;;14.60;99.90;;;;;;5103106;28;19921;-71
2022/05/27 09:17:03;;;;;;;;;;;14.60;99.90;;;;;;5089373;28;19920;-71
2022/05/27 09:19:46;;;;;;;;;;;14.60;99.90;;;;;;5070813;28;20325;-72
2022/05/27 09:22:29;;;;;;;;;;;14.50;99.90;;;;;;5114149;27;19924;-73
2022/05/27 09:24:56;;;;;;;;;;;14.50;99.90;;;;;;5079105;28;19920;-73
2022/05/27 09:27:30;;;;;;;;;;;14.70;99.90;;;;;;5086947;28;19932;-72
2022/05/27 09:30:01;;;;;;;;;;;14.80;99.90;;;;;;5107164;27;19921;-71
2022/05/27 09:32:36;;;;;;;;;;;14.70;99.90;;;;;;5110600;27;19924;-73
2022/05/27 09:35:04;;;;;;;;;;;14.60;99.90;;;;;;5088245;28;19934;-74
2022/05/27 09:37:42;;;;;;;;;;;14.60;99.90;;;;;;5107334;27;20373;-72
2022/05/27 09:40:11;;;;;;;;;;;14.60;99.90;;;;;;5107104;27;20015;-71
2022/05/27 09:42:49;;;;;;;;;;;14.60;99.90;;;;;;5104854;28;19920;-68
2022/05/27 09:45:15;;;;;;;;;;;14.60;99.90;;;;;;5070351;28;20358;-74
2022/05/27 09:47:41;;;;;;;;;;;14.60;99.90;;;;;;5084687;28;20015;-75
2022/05/27 09:50:22;;;;;;;;;;;14.80;99.90;;;;;;5080906;28;19959;-70
2022/05/27 09:52:49;;;;;;;;;;;14.90;99.90;;;;;;5071499;28;20004;-70
2022/05/27 09:55:26;;;;;;;;;;;14.90;99.90;;;;;;5072981;28;20313;-72
2022/05/27 09:57:59;;;;;;;;;;;15.10;99.90;;;;;;5119830;27;19989;-71
2022/05/27 10:00:34;;;;;;;;;;;15.20;99.90;;;;;;5075605;28;19924;-69
2022/05/27 10:02:59;;;;;;;;;;;15.00;99.90;;;;;;5072639;28;20049;-75
2022/05/27 10:05:25;;;;;;;;;;;14.90;99.90;;;;;;5074645;28;20019;-68
2022/05/27 10:07:52;;;;;;;;;;;15.00;99.90;;;;;;5056351;28;19994;-71
2022/05/27 10:10:28;;;;;;;;;;;15.20;99.90;;;;;;5069952;28;20439;-72
2022/05/27 10:12:54;;;;;;;;;;;15.00;99.90;;;;;;5082507;28;20580;-74
2022/05/27 10:15:28;;;;;;;;;;;15.00;99.90;;;;;;5080521;28;19971;-69
2022/05/27 10:17:54;;;;;;;;;;;15.30;99.90;;;;;;5087286;28;19924;-72
2022/05/27 10:20:19;;;;;;;;;;;15.30;99.90;;;;;;5101528;28;20378;-72
2022/05/27 10:22:56;;;;;;;;;;;15.50;99.90;;;;;;5109664;28;20282;-71
2022/05/27 10:25:28;;;;;;;;;;;15.50;99.90;;;;;;5117172;27;20389;-71
2022/05/27 10:27:53;;;;;;;;;;;15.30;99.90;;;;;;5093486;28;19924;-73
2022/05/27 10:30:29;;;;;;;;;;;15.30;99.90;;;;;;5093333;28;19926;-73
2022/05/27 10:32:55;;;;;;;;;;;15.30;99.90;;;;;;5093157;28;20011;-71
2022/05/27 10:35:21;;;;;;;;;;;15.40;99.90;;;;;;5088443;28;20018;-72
2022/05/27 10:37:50;;;;;;;;;;;15.30;99.90;;;;;;5091775;28;19924;-74
2022/05/27 10:40:29;;;;;;;;;;;15.20;99.90;;;;;;5087791;28;19927;-74
2022/05/27 10:43:21;;;;;;;;;;;15.00;99.90;;;;;;5069102;28;19924;-75
2022/05/27 10:45:50;;;;;;;;;;;14.70;99.90;;;;;;5083172;28;19928;-75
2022/05/27 10:48:34;;;;;;;;;;;14.70;99.90;;;;;;5089131;28;19963;-73
2022/05/27 10:51:19;;;;;;;;;;;14.70;99.90;;;;;;5071854;28;20006;-71
2022/05/27 10:53:44;;;;;;;;;;;14.50;99.90;;;;;;5090189;28;19927;-71
2022/05/27 10:56:28;;;;;;;;;;;14.50;99.90;;;;;;5091957;28;19932;-71
2022/05/27 11:02:04;;;;;;;;;;;15.00;99.90;;;;;;5090156;28;20393;-70
2022/05/27 11:04:48;;;;;;;;;;;15.00;99.90;;;;;;5092904;28;20037;-70
2022/05/27 11:07:38;;;;;;;;;;;14.80;99.90;;;;;;5092720;28;19962;-69
2022/05/27 11:10:04;;;;;;;;;;;14.70;99.90;;;;;;5074367;28;20260;-70
2022/05/27 11:15:10;;;;;;;;;;;14.60;99.90;;;;;;5072532;28;19978;-74
2022/05/27 11:15:26;;;;;;;;;;;14.60;99.90;;;;;;5076848;28;20275;-71
2022/05/27 11:18:17;;;;;;;;;;;14.60;99.90;;;;;;5073218;28;19927;-73
2022/05/27 11:20:51;;;;;;;;;;;14.60;99.90;;;;;;5071531;28;20297;-72
2022/05/27 11:23:35;;;;;;;;;;;14.60;99.90;;;;;;5087029;28;20089;-75
2022/05/27 11:26:07;;;;;;;;;;;14.50;99.90;;;;;;5092965;28;19924;-74
2022/05/27 11:28:46;;;;;;;;;;;14.40;99.90;;;;;;5082634;28;19931;-74
2022/05/27 11:31:14;;;;;;;;;;;14.30;99.90;;;;;;5092936;28;19924;-70
2022/05/27 11:33:53;;;;;;;;;;;14.20;99.90;;;;;;5087436;28;20381;-68
2022/05/27 11:36:21;;;;;;;;;;;14.50;99.90;;;;;;5090909;28;19920;-73
2022/05/27 11:38:52;;;;;;;;;;;14.80;99.90;;;;;;5078422;28;19936;-72
2022/05/27 11:41:24;;;;;;;;;;;14.90;99.90;;;;;;5123587;27;21331;-71
2022/05/27 11:43:52;;;;;;;;;;;15.00;99.90;;;;;;5092524;28;20351;-68
2022/05/27 11:46:22;;;;;;;;;;;14.90;99.90;;;;;;5091936;28;19931;-71
2022/05/27 11:49:05;;;;;;;;;;;14.80;99.90;;;;;;5078361;28;19931;-71
2022/05/27 11:51:42;;;;;;;;;;;14.90;99.90;;;;;;5099769;28;19924;-77
2022/05/27 11:54:19;;;;;;;;;;;15.00;99.90;;;;;;5105124;27;19967;-72
2022/05/27 11:56:45;;;;;;;;;;;15.10;99.90;;;;;;5083034;28;19950;-72
2022/05/27 11:59:18;;;;;;;;;;;15.00;99.90;;;;;;5094073;28;19920;-72
2022/05/27 12:01:54;;;;;;;;;;;14.80;99.90;;;;;;5081377;28;19963;-69
2022/05/27 12:04:23;;;;;;;;;;;14.80;99.90;;;;;;5083361;28;19920;-69
2022/05/27 12:06:54;;;;;;;;;;;15.10;99.90;;;;;;5069813;28;19990;-73
2022/05/27 12:09:26;;;;;;;;;;;15.20;99.90;;;;;;5107398;27;19924;-69
2022/05/27 12:11:58;;;;;;;;;;;15.20;99.90;;;;;;5083099;28;20432;-71
2022/05/27 12:14:29;;;;;;;;;;;15.20;99.90;;;;;;5082644;28;20211;-74
2022/05/27 12:16:56;;;;;;;;;;;15.00;99.90;;;;;;5076180;28;19963;-72
2022/05/27 12:19:32;;;;;;;;;;;15.00;99.90;;;;;;5078726;28;19924;-75
2022/05/27 12:22:01;;;;;;;;;;;15.10;99.90;;;;;;5059577;28;19928;-70
2022/05/27 12:24:47;;;;;;;;;;;15.10;99.90;;;;;;5072839;28;19920;-71
2022/05/27 12:27:14;;;;;;;;;;;15.30;99.90;;;;;;5080592;28;20038;-74
2022/05/27 12:29:40;;;;;;;;;;;15.60;99.90;;;;;;5080948;28;19932;-73
2022/05/27 12:32:10;;;;;;;;;;;15.70;99.90;;;;;;5083323;28;19920;-76
2022/05/27 12:34:36;;;;;;;;;;;15.70;99.90;;;;;;5083717;28;19959;-68
2022/05/27 12:37:11;;;;;;;;;;;15.40;99.90;;;;;;5083672;28;20016;-70
2022/05/27 12:39:37;;;;;;;;;;;15.20;99.90;;;;;;5112700;27;20302;-67
2022/05/27 12:42:31;;;;;;;;;;;14.90;99.90;;;;;;5117957;27;19920;-71
2022/05/27 12:45:00;;;;;;;;;;;14.70;99.90;;;;;;5096212;27;20011;-72
2022/05/27 12:47:33;;;;;;;;;;;14.70;99.90;;;;;;5082910;28;19929;-73
2022/05/27 12:50:04;;;;;;;;;;;14.90;99.90;;;;;;5073646;28;19948;-74
2022/05/27 12:52:29;;;;;;;;;;;15.00;99.90;;;;;;5085930;28;20370;-74
2022/05/27 12:54:58;;;;;;;;;;;14.90;99.90;;;;;;5090597;28;19930;-69
2022/05/27 13:03:30;;;;;;;;;;;15.00;99.90;;;;;;5104624;28;19930;-72
2022/05/27 13:06:12;;;;;;;;;;;15.00;99.90;;;;;;5069690;28;19990;-75
2022/05/27 13:08:48;;;;;;;;;;;14.90;99.90;;;;;;5072376;28;19925;-72
2022/05/27 13:11:23;;;;;;;;;;;14.60;99.90;;;;;;5086876;28;19916;-72
2022/05/27 13:13:49;;;;;;;;;;;14.80;99.90;;;;;;5062945;28;19924;-69
2022/05/27 13:16:25;;;;;;;;;;;14.90;99.90;;;;;;5076937;28;20427;-72
2022/05/27 13:18:52;;;;;;;;;;;14.90;99.90;;;;;;5103443;28;19928;-70
2022/05/27 13:21:27;;;;;;;;;;;14.90;99.90;;;;;;5053157;28;20295;-69
2022/05/27 13:24:00;;;;;;;;;;;14.90;99.90;;;;;;5103236;28;19921;-70
2022/05/27 13:26:27;;;;;;;;;;;14.90;99.90;;;;;;5105007;27;19931;-68
2022/05/27 13:28:57;;;;;;;;;;;14.80;99.90;;;;;;5070696;28;19931;-70
2022/05/27 13:31:26;;;;;;;;;;;14.70;99.90;;;;;;5109313;27;19970;-69
2022/05/27 13:33:56;;;;;;;;;;;14.50;99.90;;;;;;5067855;28;19924;-70
2022/05/27 13:36:26;;;;;;;;;;;14.50;99.90;;;;;;5097127;28;19924;-70
2022/05/27 13:38:58;;;;;;;;;;;14.30;99.90;;;;;;5083115;28;19924;-70
2022/05/27 13:41:24;;;;;;;;;;;14.20;99.90;;;;;;5081139;28;19920;-73
2022/05/27 13:43:51;;;;;;;;;;;14.20;99.90;;;;;;5112216;27;19920;-71
2022/05/27 13:46:20;;;;;;;;;;;14.20;99.90;;;;;;5097500;28;19928;-69
2022/05/27 13:48:55;;;;;;;;;;;14.40;99.90;;;;;;5087093;28;19947;-68
2022/05/27 13:51:22;;;;;;;;;;;14.30;99.90;;;;;;5069243;28;19928;-70
2022/05/27 13:53:48;;;;;;;;;;;14.40;99.90;;;;;;5088848;28;20465;-72
2022/05/27 13:56:21;;;;;;;;;;;14.50;99.90;;;;;;5088303;28;19920;-71
2022/05/27 13:58:52;;;;;;;;;;;14.60;99.90;;;;;;5089032;28;19978;-68
2022/05/27 14:01:20;;;;;;;;;;;14.60;99.90;;;;;;5087024;28;20043;-69
2022/05/27 14:03:50;;;;;;;;;;;14.50;99.90;;;;;;5069584;28;20275;-70
2022/05/27 14:06:29;;;;;;;;;;;14.70;99.90;;;;;;5114050;28;20011;-71
2022/05/27 14:08:54;;;;;;;;;;;14.90;99.90;;;;;;5091032;28;19992;-69
2022/05/27 14:11:26;;;;;;;;;;;15.10;99.90;;;;;;5094428;28;19924;-70
2022/05/27 14:13:53;;;;;;;;;;;15.10;99.90;;;;;;5069774;28;19924;-70
2022/05/27 14:16:22;;;;;;;;;;;15.10;99.90;;;;;;5070794;28;19924;-65
2022/05/27 14:18:49;;;;;;;;;;;15.10;99.90;;;;;;5080808;28;20289;-73
2022/05/27 14:24:00;;;;;;;;;;;14.60;99.90;;;;;;5082446;28;19973;-68
2022/05/27 14:26:27;;;;;;;;;;;14.80;99.90;;;;;;5077429;28;19987;-66
2022/05/27 14:28:55;;;;;;;;;;;14.80;99.90;;;;;;5076277;28;20033;-69
2022/05/27 14:31:26;;;;;;;;;;;14.60;99.90;;;;;;5112711;28;20329;-69
2022/05/27 14:33:53;;;;;;;;;;;14.30;99.90;;;;;;5080095;28;19928;-72
2022/05/27 14:36:20;;;;;;;;;;;14.20;99.90;;;;;;5079355;28;19920;-72
2022/05/27 14:38:47;;;;;;;;;;;14.30;99.90;;;;;;5073726;28;20394;-70
2022/05/27 14:41:15;;;;;;;;;;;14.30;99.90;;;;;;5080312;28;19935;-73
2022/05/27 14:43:44;;;;;;;;;;;14.10;99.90;;;;;;5081000;28;20395;-68
2022/05/27 14:46:15;;;;;;;;;;;14.10;99.90;;;;;;5076628;28;19928;-70
2022/05/27 14:48:42;;;;;;;;;;;14.40;99.90;;;;;;5081800;28;19924;-74
2022/05/27 14:51:12;;;;;;;;;;;14.50;99.90;;;;;;5114430;28;19921;-67
2022/05/27 14:53:38;;;;;;;;;;;14.50;99.90;;;;;;5061706;28;19993;-69
2022/05/27 14:56:03;;;;;;;;;;;14.40;99.90;;;;;;5082395;28;20890;-69
2022/05/27 14:58:31;;;;;;;;;;;14.20;99.90;;;;;;5113638;28;19924;-71
2022/05/27 15:00:56;;;;;;;;;;;14.20;99.90;;;;;;5083860;28;19920;-70
2022/05/27 15:03:24;;;;;;;;;;;14.30;99.90;;;;;;5089471;28;20345;-68